createdAt,value
2023-05-20T00:04:25.493Z,100480.81
2023-05-20T00:09:27.184Z,100487.03
2023-05-20T00:14:28.826Z,100483.69
2023-05-20T00:19:30.967Z,100478.78
2023-05-20T00:24:32.689Z,100466.81
2023-05-20T00:29:34.769Z,100462.25
2023-05-20T00:34:36.444Z,100464.31
2023-05-20T00:39:38.153Z,100457.38
2023-05-20T00:44:39.810Z,100464.44
2023-05-20T00:49:41.678Z,100466.31
2023-05-20T00:54:43.564Z,100470.34
2023-05-20T00:59:45.593Z,100475.41
2023-05-20T01:04:47.476Z,100472.19
2023-05-20T01:09:49.388Z,100474.34
2023-05-20T01:15:07.408Z,100476.47
2023-05-20T01:20:10.514Z,100474.91
2023-05-20T01:25:12.231Z,100473.22
2023-05-20T01:30:14.245Z,100469.66
2023-05-20T01:35:17.256Z,100475.66
2023-05-20T01:40:19.596Z,100475.44
2023-05-20T01:45:21.535Z,100472.38
2023-05-20T01:50:23.268Z,100483.13
2023-05-20T01:55:25.038Z,100471.44
2023-05-20T02:00:26.937Z,100468.75
2023-05-20T02:05:28.664Z,100476.53
2023-05-20T02:10:30.492Z,100473.84
2023-05-20T02:15:32.380Z,100468.56
2023-05-20T02:20:37.395Z,100475.41
2023-05-20T02:25:39.058Z,100467.19
2023-05-20T02:30:40.754Z,100469.28
2023-05-20T02:35:42.430Z,100471.81
2023-05-20T02:40:45.142Z,100464.75
2023-05-20T02:45:47.378Z,100441.69
2023-05-20T02:50:49.186Z,100449.38
2023-05-20T02:55:50.921Z,100430.50
2023-05-20T03:00:53.151Z,100424.94
2023-05-20T03:05:55.477Z,100427.28
2023-05-20T03:10:58.821Z,100431.31
2023-05-20T03:16:01.606Z,100440.00
2023-05-20T03:21:04.227Z,100435.88
2023-05-20T03:26:06.914Z,100437.75
2023-05-20T03:31:08.992Z,100439.19
2023-05-20T03:36:10.969Z,100441.09
2023-05-20T03:41:12.884Z,100451.75
2023-05-20T03:46:14.894Z,100453.03
2023-05-20T03:51:16.844Z,100455.97
2023-05-20T03:56:21.093Z,100458.03
2023-05-20T04:01:25.728Z,100451.09
2023-05-20T04:06:27.737Z,100443.34
2023-05-20T04:11:31.119Z,100449.75
2023-05-20T04:16:32.818Z,100448.72
2023-05-20T04:21:34.706Z,100454.94
2023-05-20T04:26:36.605Z,100450.44
2023-05-20T04:31:38.677Z,100455.50
2023-05-20T04:36:40.800Z,100445.91
2023-05-20T04:41:42.954Z,100459.56
2023-05-20T04:46:46.176Z,100450.47
2023-05-20T04:51:50.131Z,100458.06
2023-05-20T04:56:53.578Z,100447.78
2023-05-20T05:01:55.240Z,100447.25
2023-05-20T05:06:58.148Z,100444.59
2023-05-20T05:11:59.818Z,100443.72
2023-05-20T05:17:01.539Z,100439.34
2023-05-20T05:22:03.889Z,100435.28
2023-05-20T05:27:06.099Z,100451.81
2023-05-20T05:32:08.120Z,100450.47
2023-05-20T05:37:10.015Z,100448.44
2023-05-20T05:42:12.230Z,100456.72
2023-05-20T05:47:14.915Z,100452.31
2023-05-20T05:52:16.936Z,100451.16
2023-05-20T05:57:18.670Z,100438.47
2023-05-20T06:02:22.271Z,100444.97
2023-05-20T06:07:24.164Z,100444.84
2023-05-20T06:12:26.891Z,100436.34
2023-05-20T06:17:28.676Z,100443.22
2023-05-20T06:22:30.557Z,100451.22
2023-05-20T06:27:32.512Z,100442.72
2023-05-20T06:32:34.274Z,100433.13
2023-05-20T06:37:36.122Z,100437.44
2023-05-20T06:42:37.967Z,100438.41
2023-05-20T06:47:40.889Z,100439.81
2023-05-20T06:52:43.588Z,100424.47
2023-05-20T06:57:46.402Z,100416.16
2023-05-20T07:02:49.434Z,100401.03
2023-05-20T07:07:51.674Z,100398.59
2023-05-20T07:12:53.485Z,100396.78
2023-05-20T07:17:55.574Z,100394.50
2023-05-20T07:22:57.384Z,100399.69
2023-05-20T07:28:06.812Z,100399.28
2023-05-20T07:33:08.595Z,100392.00
2023-05-20T07:38:12.524Z,100390.78
2023-05-20T07:43:14.782Z,100385.59
2023-05-20T07:48:16.850Z,100376.03
2023-05-20T07:53:18.826Z,100382.56
2023-05-20T07:58:20.808Z,100388.72
2023-05-20T08:03:23.482Z,100380.59
2023-05-20T08:08:36.618Z,100363.63
2023-05-20T08:13:44.188Z,100347.22
2023-05-20T08:18:46.824Z,100357.09
2023-05-20T08:23:48.553Z,100352.84
2023-05-20T08:28:50.546Z,100339.06
2023-05-20T08:33:53.440Z,100338.16
2023-05-20T08:38:55.965Z,100342.59
2023-05-20T08:44:00.856Z,100330.50
2023-05-20T08:49:03.507Z,100326.19
2023-05-20T08:54:05.355Z,100317.81
2023-05-20T08:59:07.372Z,100310.50
2023-05-20T09:04:09.878Z,100308.13
2023-05-20T09:09:15.716Z,100305.72
2023-05-20T09:14:17.433Z,100302.72
2023-05-20T09:19:24.334Z,100297.94
2023-05-20T09:24:27.238Z,100306.44
2023-05-20T09:29:33.336Z,100298.72
2023-05-20T09:34:35.356Z,100295.22
2023-05-20T09:39:48.491Z,100298.16
2023-05-20T09:44:51.856Z,100294.47
2023-05-20T09:49:53.995Z,100288.84
2023-05-20T09:54:57.564Z,100268.69
2023-05-20T09:59:59.253Z,100259.69
2023-05-20T10:05:10.966Z,100265.94
2023-05-20T10:10:33.134Z,100249.44
2023-05-20T10:16:08.627Z,100240.88
2023-05-20T10:21:19.032Z,100235.97
2023-05-20T10:26:22.523Z,100241.81
2023-05-20T10:31:25.761Z,100229.25
2023-05-20T10:36:29.199Z,100234.22
2023-05-20T10:41:30.907Z,100236.81
2023-05-20T10:46:48.176Z,100222.38
2023-05-20T10:51:55.995Z,100220.00
2023-05-20T10:56:58.000Z,100219.81
2023-05-20T11:02:02.367Z,100203.78
2023-05-20T11:07:04.356Z,100202.22
2023-05-20T11:12:06.490Z,100196.03
2023-05-20T11:17:08.321Z,100195.16
2023-05-20T11:22:10.423Z,100202.53
2023-05-20T11:27:12.171Z,100196.38
2023-05-20T11:32:13.980Z,100191.13
2023-05-20T11:37:16.147Z,100188.16
2023-05-20T11:42:17.782Z,100168.03
2023-05-20T11:47:27.593Z,100162.84
2023-05-20T11:52:29.748Z,100156.97
2023-05-20T11:57:31.788Z,100152.72
2023-05-20T12:02:33.540Z,100145.78
2023-05-20T12:07:36.772Z,100150.00
2023-05-20T12:12:38.490Z,100138.50
2023-05-20T12:17:48.850Z,100128.25
2023-05-20T12:22:50.931Z,100127.56
2023-05-20T12:27:52.627Z,100124.88
2023-05-20T12:32:54.383Z,100103.72
2023-05-20T12:37:56.534Z,100105.13
2023-05-20T12:42:59.088Z,100091.06
2023-05-20T12:48:00.985Z,100089.84
2023-05-20T12:53:02.719Z,100090.72
2023-05-20T12:58:04.392Z,100081.78
2023-05-20T13:03:06.879Z,100071.78
2023-05-20T13:08:10.276Z,100059.63
2023-05-20T13:13:13.913Z,100070.84
2023-05-20T13:18:16.675Z,100065.69
2023-05-20T13:23:18.362Z,100063.50
2023-05-20T13:28:20.936Z,100051.09
2023-05-20T13:33:24.179Z,100058.06
2023-05-20T13:38:25.929Z,100052.63
2023-05-20T13:43:28.653Z,100043.22
2023-05-20T13:48:30.412Z,100044.66
2023-05-20T13:53:32.072Z,100038.72
2023-05-20T13:58:33.725Z,100042.25
2023-05-20T14:03:37.426Z,100035.13
2023-05-20T14:08:39.193Z,100027.63
2023-05-20T14:13:41.214Z,100018.69
2023-05-20T14:18:42.919Z,100027.13
2023-05-20T14:23:45.227Z,100018.47
2023-05-20T14:28:47.085Z,100004.56
2023-05-20T14:33:49.369Z,100007.06
2023-05-20T14:38:51.159Z,99997.41
2023-05-20T14:43:52.833Z,99996.69
2023-05-20T14:48:54.537Z,100000.16
2023-05-20T14:53:56.173Z,99991.59
2023-05-20T14:58:57.867Z,100003.03
2023-05-20T15:03:59.955Z,99996.69
2023-05-20T15:09:02.405Z,99995.41
2023-05-20T15:14:04.118Z,99986.72
2023-05-20T15:19:05.879Z,99969.78
2023-05-20T15:24:07.557Z,99969.81
2023-05-20T15:29:09.255Z,99963.34
2023-05-20T15:34:11.012Z,99970.31
2023-05-20T15:39:13.106Z,99959.84
2023-05-20T15:44:14.774Z,99953.53
2023-05-20T15:49:16.710Z,99956.16
2023-05-20T15:54:20.099Z,99958.03
2023-05-20T15:59:22.014Z,99957.91
2023-05-20T16:04:24.062Z,99960.06
2023-05-20T16:09:25.819Z,99956.03
2023-05-20T16:14:27.473Z,99938.53
2023-05-20T16:19:29.299Z,99943.59
2023-05-20T16:24:31.254Z,99926.16
2023-05-20T16:29:33.232Z,99945.06
2023-05-20T16:34:34.890Z,99939.94
2023-05-20T16:39:36.598Z,99955.44
2023-05-20T16:44:39.269Z,99953.03
2023-05-20T16:49:40.911Z,99951.38
2023-05-20T16:54:42.608Z,99948.22
2023-05-20T16:59:44.937Z,99945.38
2023-05-20T17:04:46.824Z,99957.78
2023-05-20T17:09:48.519Z,99960.59
2023-05-20T17:14:50.170Z,99956.44
2023-05-20T17:19:51.839Z,99964.31
2023-05-20T17:24:53.499Z,99969.00
2023-05-20T17:29:55.278Z,99971.03
2023-05-20T17:34:57.013Z,99975.34
2023-05-20T17:39:58.689Z,99967.16
2023-05-20T17:45:00.491Z,99978.59
2023-05-20T17:50:02.846Z,99993.53
2023-05-20T17:55:05.000Z,99995.19
2023-05-20T18:00:10.224Z,99999.09
2023-05-20T18:05:12.913Z,99995.50
2023-05-20T18:10:14.578Z,99992.06
2023-05-20T18:15:18.379Z,99995.06
2023-05-20T18:20:20.132Z,99991.81
2023-05-20T18:25:21.773Z,100008.66
2023-05-20T18:30:23.550Z,100020.44
2023-05-20T18:35:25.211Z,100016.47
2023-05-20T18:40:28.213Z,100018.44
2023-05-20T18:45:30.019Z,100021.22
2023-05-20T18:50:31.993Z,100035.03
2023-05-20T18:55:33.742Z,100028.59
2023-05-20T19:00:35.611Z,100040.06
2023-05-20T19:05:37.811Z,100038.00
2023-05-20T19:10:39.751Z,100056.59
2023-05-20T19:15:41.458Z,100055.13
2023-05-20T19:20:43.133Z,100050.13
2023-05-20T19:25:45.043Z,100044.44
2023-05-20T19:30:47.213Z,100051.72
2023-05-20T19:35:48.992Z,100054.63
2023-05-20T19:40:50.658Z,100060.81
2023-05-20T19:45:52.347Z,100058.81
2023-05-20T19:50:54.015Z,100067.13
2023-05-20T19:55:55.671Z,100071.44
2023-05-20T20:00:57.356Z,100075.00
2023-05-20T20:05:59.082Z,100063.03
2023-05-20T20:11:00.826Z,100064.84
2023-05-20T20:16:02.965Z,100055.72
2023-05-20T20:21:05.697Z,100067.69
2023-05-20T20:26:07.938Z,100069.94
2023-05-20T20:31:09.689Z,100068.13
2023-05-20T20:36:11.367Z,100059.75
2023-05-20T20:41:16.146Z,100064.41
2023-05-20T20:46:17.955Z,100058.94
2023-05-20T20:51:19.887Z,100064.56
2023-05-20T20:56:21.548Z,100061.22
2023-05-20T21:01:23.578Z,100044.94
2023-05-20T21:06:25.311Z,100047.00
2023-05-20T21:11:28.059Z,100047.09
2023-05-20T21:16:29.772Z,100050.91
2023-05-20T21:21:31.847Z,100044.22
2023-05-20T21:26:33.663Z,100041.31
2023-05-20T21:31:35.413Z,100038.16
2023-05-20T21:36:37.149Z,100044.03
2023-05-20T21:41:38.795Z,100038.09
2023-05-20T21:46:40.493Z,100035.91
2023-05-20T21:51:42.243Z,100037.03
2023-05-20T21:56:43.935Z,100042.38
2023-05-20T22:01:45.743Z,100037.50
2023-05-20T22:06:47.665Z,100041.19
2023-05-20T22:11:49.792Z,100039.78
2023-05-20T22:16:51.516Z,100033.44
2023-05-20T22:21:53.210Z,100038.47
2023-05-20T22:26:54.853Z,100029.28
2023-05-20T22:31:56.611Z,100021.63
2023-05-20T22:36:58.363Z,100020.31
2023-05-20T22:42:00.036Z,100022.13
2023-05-20T22:47:01.705Z,100020.44
2023-05-20T22:52:03.530Z,100020.72
2023-05-20T22:57:05.465Z,100010.09
2023-05-20T23:02:07.847Z,100008.03
2023-05-20T23:07:09.597Z,100009.22
2023-05-20T23:12:11.308Z,100003.88
2023-05-20T23:17:12.996Z,100000.97
2023-05-20T23:22:15.014Z,99999.13
2023-05-20T23:27:16.686Z,100004.44
2023-05-20T23:32:18.346Z,99999.97
2023-05-20T23:37:20.238Z,99995.47
2023-05-20T23:42:21.889Z,99993.88
2023-05-20T23:47:26.085Z,99989.50
2023-05-20T23:52:28.323Z,99986.53
2023-05-20T23:57:29.976Z,99986.81
